createdAt,value
2019-05-30T00:00:53.861Z,58.51
2019-05-30T00:03:26.508Z,57.99
2019-05-30T00:06:00.564Z,58.10
2019-05-30T00:08:34.422Z,57.69
2019-05-30T00:11:08.422Z,58.58
2019-05-30T00:13:40.271Z,58.80
2019-05-30T00:16:13.206Z,59.08
2019-05-30T00:18:47.164Z,59.04
2019-05-30T00:21:20.009Z,59.15
2019-05-30T00:23:52.866Z,58.81
2019-05-30T00:26:25.612Z,59.49
2019-05-30T00:28:58.219Z,59.52
2019-05-30T00:31:31.637Z,59.20
2019-05-30T00:34:05.606Z,58.93
2019-05-30T00:36:38.311Z,58.98
2019-05-30T00:39:11.406Z,58.79
2019-05-30T00:41:42.847Z,59.26
2019-05-30T00:44:17.301Z,59.87
2019-05-30T00:46:49.929Z,60.03
2019-05-30T00:49:21.523Z,60.05
2019-05-30T00:51:56.901Z,59.83
2019-05-30T00:54:29.417Z,60.15
2019-05-30T00:57:04.922Z,59.18
2019-05-30T00:59:38.189Z,59.25
2019-05-30T01:02:12.341Z,58.83
2019-05-30T01:04:46.401Z,58.60
2019-05-30T01:07:18.432Z,58.70
2019-05-30T01:09:51.514Z,58.78
2019-05-30T01:12:25.111Z,58.50
2019-05-30T01:14:57.145Z,58.50
2019-05-30T01:17:29.236Z,58.05
2019-05-30T01:20:03.117Z,58.16
2019-05-30T01:22:35.685Z,58.20
2019-05-30T01:25:08.401Z,57.91
2019-05-30T01:27:42.134Z,58.37
2019-05-30T01:30:17.795Z,57.99
2019-05-30T01:32:51.075Z,57.89
2019-05-30T01:35:24.130Z,57.87
2019-05-30T01:37:55.886Z,57.62
2019-05-30T01:40:28.436Z,57.51
2019-05-30T01:43:02.094Z,57.42
2019-05-30T01:45:34.184Z,57.81
2019-05-30T01:48:06.508Z,57.56
2019-05-30T01:50:39.247Z,57.88
2019-05-30T01:53:10.454Z,57.52
2019-05-30T01:55:50.243Z,57.22
2019-05-30T01:58:23.764Z,57.66
2019-05-30T02:00:55.018Z,57.81
2019-05-30T02:03:29.435Z,57.99
2019-05-30T02:06:03.249Z,57.88
2019-05-30T02:08:35.920Z,57.52
2019-05-30T02:11:09.645Z,57.72
2019-05-30T02:13:42.774Z,57.73
2019-05-30T02:16:15.216Z,57.80
2019-05-30T02:18:47.152Z,58.15
2019-05-30T02:21:19.045Z,58.25
2019-05-30T02:23:50.568Z,58.04
2019-05-30T02:26:23.969Z,58.01
2019-05-30T02:28:56.259Z,58.53
2019-05-30T02:31:38.973Z,58.05
2019-05-30T02:34:05.292Z,58.03
2019-05-30T02:36:37.752Z,58.29
2019-05-30T02:39:11.361Z,57.96
2019-05-30T02:41:46.393Z,58.45
2019-05-30T02:44:18.593Z,58.03
2019-05-30T02:46:52.199Z,57.91
2019-05-30T02:49:24.329Z,57.56
2019-05-30T02:51:55.433Z,58.34
2019-05-30T02:54:29.071Z,58.44
2019-05-30T02:57:03.406Z,58.08
2019-05-30T02:59:35.822Z,57.86
2019-05-30T03:02:16.789Z,57.57
2019-05-30T03:05:01.630Z,57.08
2019-05-30T03:07:35.050Z,57.36
2019-05-30T03:10:11.711Z,57.20
2019-05-30T03:12:41.396Z,57.16
2019-05-30T03:15:15.587Z,57.47
2019-05-30T03:17:48.799Z,57.66
2019-05-30T03:20:23.691Z,57.59
2019-05-30T03:22:55.629Z,57.15
2019-05-30T03:25:29.251Z,57.47
2019-05-30T03:28:02.775Z,57.33
2019-05-30T03:30:34.908Z,57.03
2019-05-30T03:33:26.587Z,57.15
2019-05-30T03:35:44.686Z,56.88
2019-05-30T03:38:18.314Z,57.06
2019-05-30T03:40:49.751Z,56.88
2019-05-30T03:43:21.288Z,57.11
2019-05-30T03:45:54.329Z,56.89
2019-05-30T03:48:27.080Z,57.21
2019-05-30T03:51:00.128Z,57.11
2019-05-30T03:53:33.578Z,57.16
2019-05-30T03:56:12.026Z,57.26
2019-05-30T03:58:57.325Z,56.98
2019-05-30T04:01:34.865Z,57.18
2019-05-30T04:04:20.160Z,56.94
2019-05-30T04:06:57.418Z,57.10
2019-05-30T04:09:30.163Z,56.95
2019-05-30T04:12:14.864Z,57.01
2019-05-30T04:14:52.404Z,56.82
2019-05-30T04:17:23.739Z,56.86
2019-05-30T04:19:55.796Z,56.70
2019-05-30T04:22:32.299Z,56.75
2019-05-30T04:25:05.043Z,56.46
2019-05-30T04:27:36.412Z,56.51
2019-05-30T04:30:10.003Z,56.50
2019-05-30T04:32:46.131Z,56.50
2019-05-30T04:35:19.028Z,56.10
2019-05-30T04:37:51.275Z,56.40
2019-05-30T04:40:22.477Z,56.21
2019-05-30T04:42:53.716Z,56.22
2019-05-30T04:45:27.937Z,56.23
2019-05-30T04:47:58.569Z,55.94
2019-05-30T04:50:30.017Z,55.81
2019-05-30T04:53:02.584Z,55.92
2019-05-30T04:55:36.526Z,56.14
2019-05-30T04:58:11.101Z,55.54
2019-05-30T05:00:43.838Z,55.19
2019-05-30T05:03:28.817Z,55.53
2019-05-30T05:05:52.721Z,55.34
2019-05-30T05:08:24.450Z,55.45
2019-05-30T05:10:57.361Z,55.67
2019-05-30T05:13:29.763Z,55.51
2019-05-30T05:16:01.972Z,55.33
2019-05-30T05:18:35.332Z,55.37
2019-05-30T05:21:07.196Z,55.48
2019-05-30T05:23:38.358Z,54.52
2019-05-30T05:26:11.782Z,54.84
2019-05-30T05:28:43.100Z,54.76
2019-05-30T05:31:14.709Z,54.76
2019-05-30T05:33:56.536Z,54.54
2019-05-30T05:36:25.210Z,54.16
2019-05-30T05:38:57.720Z,54.03
2019-05-30T05:41:31.733Z,54.04
2019-05-30T05:44:03.832Z,53.45
2019-05-30T05:46:36.409Z,53.42
2019-05-30T05:49:08.293Z,52.99
2019-05-30T05:51:39.673Z,53.17
2019-05-30T05:54:10.762Z,53.23
2019-05-30T05:56:43.077Z,53.59
2019-05-30T05:59:17.005Z,53.95
2019-05-30T06:01:49.157Z,53.49
2019-05-30T06:04:21.133Z,53.50
2019-05-30T06:06:53.540Z,53.39
2019-05-30T06:09:25.853Z,53.37
2019-05-30T06:11:59.349Z,53.23
2019-05-30T06:14:32.329Z,53.23
2019-05-30T06:17:04.592Z,53.08
2019-05-30T06:19:46.475Z,53.23
2019-05-30T06:22:17.398Z,53.80
2019-05-30T06:24:51.439Z,54.38
2019-05-30T06:27:24.564Z,54.27
2019-05-30T06:29:58.595Z,54.09
2019-05-30T06:32:32.500Z,52.57
2019-05-30T06:35:04.877Z,51.50
2019-05-30T06:37:38.054Z,50.79
2019-05-30T06:40:10.459Z,50.64
2019-05-30T06:42:43.634Z,50.18
2019-05-30T06:45:16.008Z,50.05
2019-05-30T06:47:48.423Z,49.55
2019-05-30T06:50:24.626Z,49.24
2019-05-30T06:52:58.756Z,48.84
2019-05-30T06:55:32.568Z,48.31
2019-05-30T06:58:03.687Z,47.91
2019-05-30T07:00:34.962Z,47.45
2019-05-30T07:03:07.107Z,47.43
2019-05-30T07:05:38.689Z,47.22
2019-05-30T07:08:13.245Z,46.70
2019-05-30T07:10:47.142Z,46.76
2019-05-30T07:13:19.367Z,46.64
2019-05-30T07:15:52.487Z,46.44
2019-05-30T07:18:25.704Z,46.31
2019-05-30T07:20:58.484Z,45.83
2019-05-30T07:23:39.227Z,46.14
2019-05-30T07:26:13.199Z,46.15
2019-05-30T07:28:44.836Z,46.33
2019-05-30T07:31:16.127Z,45.68
2019-05-30T07:33:47.959Z,45.75
2019-05-30T07:36:20.971Z,46.00
2019-05-30T07:38:54.207Z,45.29
2019-05-30T07:41:28.772Z,45.35
2019-05-30T07:44:00.911Z,44.88
2019-05-30T07:46:33.586Z,44.98
2019-05-30T07:49:05.761Z,45.15
2019-05-30T07:51:39.006Z,44.49
2019-05-30T07:54:10.368Z,44.87
2019-05-30T07:56:42.378Z,44.42
2019-05-30T07:59:14.080Z,44.39
2019-05-30T08:01:47.126Z,44.16
2019-05-30T08:04:21.223Z,43.62
2019-05-30T08:06:53.697Z,43.10
2019-05-30T08:09:29.208Z,43.50
2019-05-30T08:12:02.567Z,43.91
2019-05-30T08:14:35.279Z,43.91
2019-05-30T08:17:09.470Z,43.98
2019-05-30T08:19:43.457Z,43.43
2019-05-30T08:22:17.659Z,43.34
2019-05-30T08:24:51.389Z,42.25
2019-05-30T08:27:40.263Z,42.19
2019-05-30T08:30:15.675Z,41.55
2019-05-30T08:32:48.392Z,41.84
2019-05-30T08:35:21.920Z,41.99
2019-05-30T08:37:55.822Z,41.30
2019-05-30T08:40:31.131Z,41.35
2019-05-30T08:43:08.688Z,41.53
2019-05-30T08:45:40.576Z,41.03
2019-05-30T08:48:12.617Z,41.05
2019-05-30T08:50:45.921Z,41.35
2019-05-30T08:53:18.844Z,41.71
2019-05-30T08:55:52.346Z,41.83
2019-05-30T08:58:27.343Z,40.80
2019-05-30T09:00:59.902Z,41.09
2019-05-30T09:03:33.088Z,41.04
2019-05-30T09:06:04.662Z,41.35
2019-05-30T09:08:39.952Z,41.32
2019-05-30T09:11:11.624Z,41.86
2019-05-30T09:13:46.684Z,42.20
2019-05-30T09:16:20.427Z,42.48
2019-05-30T09:18:57.619Z,42.85
2019-05-30T09:21:41.351Z,43.49
2019-05-30T09:24:13.283Z,44.19
2019-05-30T09:26:47.448Z,43.79
2019-05-30T09:29:19.194Z,44.27
2019-05-30T09:31:50.421Z,43.87
2019-05-30T09:34:24.007Z,44.66
2019-05-30T09:36:58.232Z,44.98
2019-05-30T09:39:34.108Z,44.59
2019-05-30T09:42:07.994Z,44.45
2019-05-30T09:44:41.101Z,44.62
2019-05-30T09:47:14.766Z,44.67
2019-05-30T09:49:48.588Z,44.81
2019-05-30T09:52:20.706Z,45.13
2019-05-30T09:54:53.570Z,45.10
2019-05-30T09:57:27.662Z,45.51
2019-05-30T10:00:01.783Z,44.94
2019-05-30T10:02:34.201Z,44.79
2019-05-30T10:05:09.921Z,45.20
2019-05-30T10:07:43.549Z,43.66
2019-05-30T10:10:16.292Z,42.73
2019-05-30T10:12:50.387Z,41.69
2019-05-30T10:15:23.223Z,41.46
2019-05-30T10:17:56.996Z,41.26
2019-05-30T10:20:29.957Z,41.45
2019-05-30T10:23:03.706Z,41.19
2019-05-30T10:25:36.329Z,41.41
2019-05-30T10:28:08.773Z,41.56
2019-05-30T10:30:40.442Z,42.32
2019-05-30T10:33:12.749Z,42.52
2019-05-30T10:35:47.355Z,43.31
2019-05-30T10:39:08.054Z,43.32
2019-05-30T10:41:49.057Z,44.06
2019-05-30T10:44:21.521Z,44.06
2019-05-30T10:46:54.548Z,44.80
2019-05-30T10:49:34.606Z,44.84
2019-05-30T10:52:01.856Z,45.52
2019-05-30T10:54:34.329Z,44.97
2019-05-30T10:57:07.526Z,44.70
2019-05-30T10:59:40.319Z,44.76
2019-05-30T11:02:13.244Z,44.98
2019-05-30T11:04:47.789Z,45.14
2019-05-30T11:07:33.970Z,45.47
2019-05-30T11:10:11.443Z,44.87
2019-05-30T11:12:44.271Z,45.24
2019-05-30T11:15:16.298Z,44.99
2019-05-30T11:17:50.541Z,45.14
2019-05-30T11:20:23.327Z,45.59
2019-05-30T11:22:54.744Z,45.23
2019-05-30T11:25:26.689Z,45.41
2019-05-30T11:28:00.088Z,45.40
2019-05-30T11:30:33.000Z,46.12
2019-05-30T11:33:06.241Z,46.60
2019-05-30T11:35:37.932Z,46.52
2019-05-30T11:38:11.375Z,46.87
2019-05-30T11:40:45.360Z,47.00
2019-05-30T11:43:18.837Z,46.94
2019-05-30T11:45:51.638Z,47.54
2019-05-30T11:48:23.305Z,47.04
2019-05-30T11:50:57.890Z,46.73
2019-05-30T11:53:29.892Z,46.29
2019-05-30T11:56:03.904Z,46.02
2019-05-30T11:58:36.116Z,45.93
2019-05-30T12:01:08.311Z,45.64
2019-05-30T12:03:40.159Z,45.26
2019-05-30T12:06:12.675Z,45.49
2019-05-30T12:08:44.823Z,45.62
2019-05-30T12:11:15.941Z,45.86
2019-05-30T12:13:48.202Z,45.90
2019-05-30T12:16:20.544Z,46.00
2019-05-30T12:18:53.951Z,45.80
2019-05-30T12:21:29.806Z,46.44
2019-05-30T12:24:02.393Z,46.10
2019-05-30T12:26:34.746Z,46.24
2019-05-30T12:29:07.315Z,45.49
2019-05-30T12:31:39.695Z,45.93
2019-05-30T12:34:13.695Z,45.27
2019-05-30T12:36:45.538Z,45.48
2019-05-30T12:39:19.813Z,45.77
2019-05-30T12:41:53.415Z,45.89
2019-05-30T12:44:26.872Z,46.06
2019-05-30T12:46:59.236Z,46.27
2019-05-30T12:49:32.473Z,46.36
2019-05-30T12:52:03.519Z,46.77
2019-05-30T12:54:36.255Z,46.92
2019-05-30T12:57:08.354Z,46.81
2019-05-30T12:59:39.826Z,46.95
2019-05-30T13:02:13.358Z,47.72
2019-05-30T13:04:45.414Z,47.77
2019-05-30T13:07:18.290Z,47.33
2019-05-30T13:09:50.093Z,47.21
2019-05-30T13:12:21.196Z,46.57
2019-05-30T13:14:55.491Z,46.70
2019-05-30T13:17:27.136Z,46.02
2019-05-30T13:20:01.474Z,46.19
2019-05-30T13:22:32.958Z,45.63
2019-05-30T13:25:05.692Z,45.08
2019-05-30T13:27:37.920Z,44.91
2019-05-30T13:30:10.938Z,43.78
2019-05-30T13:32:42.945Z,43.33
2019-05-30T13:35:17.234Z,42.73
2019-05-30T13:37:48.663Z,43.21
2019-05-30T13:40:24.893Z,44.22
2019-05-30T13:42:54.319Z,43.75
2019-05-30T13:45:26.524Z,44.05
2019-05-30T13:48:02.465Z,44.37
2019-05-30T13:50:35.051Z,44.80
2019-05-30T13:53:09.214Z,44.46
2019-05-30T13:55:41.783Z,44.69
2019-05-30T13:58:14.488Z,45.30
2019-05-30T14:00:46.777Z,45.20
2019-05-30T14:03:20.265Z,45.56
2019-05-30T14:05:51.918Z,45.55
2019-05-30T14:08:25.281Z,45.48
2019-05-30T14:10:57.562Z,45.71
2019-05-30T14:13:30.537Z,45.83
2019-05-30T14:16:03.261Z,45.79
2019-05-30T14:18:36.407Z,45.99
2019-05-30T14:21:09.500Z,45.79
2019-05-30T14:23:40.675Z,45.46
2019-05-30T14:26:13.035Z,45.78
2019-05-30T14:28:45.519Z,45.82
2019-05-30T14:31:17.714Z,45.71
2019-05-30T14:34:02.098Z,45.63
2019-05-30T14:36:37.660Z,46.51
2019-05-30T14:39:11.233Z,46.58
2019-05-30T14:41:44.126Z,46.82
2019-05-30T14:44:15.386Z,46.53
2019-05-30T14:46:59.701Z,46.47
2019-05-30T14:49:32.092Z,45.94
2019-05-30T14:52:11.853Z,45.79
2019-05-30T14:54:47.030Z,45.51
2019-05-30T14:57:26.328Z,45.83
2019-05-30T14:59:58.417Z,46.26
2019-05-30T15:02:35.693Z,46.52
2019-05-30T15:05:11.458Z,46.83
2019-05-30T15:07:42.729Z,46.61
2019-05-30T15:10:14.343Z,46.53
2019-05-30T15:12:45.660Z,46.60
2019-05-30T15:15:18.789Z,46.88
2019-05-30T15:17:50.438Z,46.85
2019-05-30T15:20:22.947Z,47.23
2019-05-30T15:22:54.954Z,47.50
2019-05-30T15:25:26.193Z,47.56
2019-05-30T15:27:57.962Z,46.99
2019-05-30T15:30:30.462Z,46.97
2019-05-30T15:33:02.472Z,47.60
2019-05-30T15:35:35.284Z,47.31
2019-05-30T15:38:08.784Z,47.26
2019-05-30T15:40:41.173Z,47.22
2019-05-30T15:43:13.428Z,47.38
2019-05-30T15:45:45.502Z,47.78
2019-05-30T15:48:22.271Z,47.91
2019-05-30T15:50:54.649Z,48.19
2019-05-30T15:53:27.138Z,48.51
2019-05-30T15:55:59.638Z,47.88
2019-05-30T15:58:32.954Z,48.39
2019-05-30T16:01:05.164Z,48.31
2019-05-30T16:03:36.917Z,48.70
2019-05-30T16:06:08.100Z,48.70
2019-05-30T16:08:45.393Z,48.99
2019-05-30T16:11:14.953Z,49.22
2019-05-30T16:13:46.913Z,49.48
2019-05-30T16:16:33.763Z,50.02
2019-05-30T16:18:53.311Z,49.59
2019-05-30T16:21:31.537Z,50.35
2019-05-30T16:24:03.694Z,50.31
2019-05-30T16:26:34.967Z,50.76
2019-05-30T16:29:07.792Z,50.72
2019-05-30T16:31:40.566Z,50.73
2019-05-30T16:34:12.103Z,50.85
2019-05-30T16:36:44.527Z,50.72
2019-05-30T16:39:16.086Z,51.02
2019-05-30T16:41:47.132Z,51.23
2019-05-30T16:44:20.432Z,51.19
2019-05-30T16:46:54.971Z,51.38
2019-05-30T16:49:28.338Z,51.51
2019-05-30T16:52:00.908Z,51.25
2019-05-30T16:54:32.274Z,52.19
2019-05-30T16:57:03.513Z,52.25
2019-05-30T16:59:36.478Z,51.73
2019-05-30T17:02:08.228Z,52.44
2019-05-30T17:04:39.790Z,52.57
2019-05-30T17:07:11.130Z,52.54
2019-05-30T17:09:42.859Z,52.30
2019-05-30T17:12:15.335Z,53.13
2019-05-30T17:14:46.865Z,53.54
2019-05-30T17:17:18.236Z,53.33
2019-05-30T17:19:49.371Z,53.99
2019-05-30T17:22:20.809Z,54.10
2019-05-30T17:24:54.537Z,54.46
2019-05-30T17:30:15.956Z,54.27
2019-05-30T17:32:48.189Z,54.17
2019-05-30T17:35:20.102Z,54.17
2019-05-30T17:37:52.170Z,53.58
2019-05-30T17:40:39.111Z,53.81
2019-05-30T17:42:58.538Z,54.05
2019-05-30T17:45:30.347Z,54.20
2019-05-30T17:48:15.986Z,54.34
2019-05-30T17:50:38.207Z,54.52
2019-05-30T17:53:10.173Z,54.50
2019-05-30T17:55:42.375Z,54.34
2019-05-30T17:58:15.045Z,54.85
2019-05-30T18:00:46.490Z,54.62
2019-05-30T18:03:18.084Z,54.38
2019-05-30T18:05:49.782Z,54.42
2019-05-30T18:08:21.210Z,54.88
2019-05-30T18:10:54.023Z,55.05
2019-05-30T18:13:27.096Z,54.80
2019-05-30T18:16:03.758Z,55.43
2019-05-30T18:18:35.087Z,55.26
2019-05-30T18:21:07.274Z,55.92
2019-05-30T18:23:39.126Z,55.78
2019-05-30T18:26:11.890Z,55.65
2019-05-30T18:28:43.373Z,55.67
2019-05-30T18:31:15.297Z,55.71
2019-05-30T18:33:48.497Z,55.69
2019-05-30T18:36:19.744Z,55.87
2019-05-30T18:38:51.117Z,55.96
2019-05-30T18:41:22.710Z,55.94
2019-05-30T18:43:53.958Z,55.63
2019-05-30T18:46:25.139Z,56.08
2019-05-30T18:48:59.823Z,55.85
2019-05-30T18:51:34.371Z,56.32
2019-05-30T18:54:06.848Z,56.01
2019-05-30T18:56:41.128Z,56.66
2019-05-30T18:59:16.134Z,56.65
2019-05-30T19:01:50.725Z,56.79
2019-05-30T19:04:31.609Z,56.59
2019-05-30T19:07:05.123Z,56.48
2019-05-30T19:09:41.437Z,56.61
2019-05-30T19:12:17.042Z,56.78
2019-05-30T19:14:52.287Z,56.83
2019-05-30T19:17:25.706Z,56.71
2019-05-30T19:20:03.897Z,57.00
2019-05-30T19:22:37.461Z,57.17
2019-05-30T19:25:12.238Z,57.29
2019-05-30T19:27:51.547Z,57.35
2019-05-30T19:30:26.975Z,57.28
2019-05-30T19:33:01.306Z,57.62
2019-05-30T19:35:33.472Z,57.52
2019-05-30T19:38:06.460Z,57.46
2019-05-30T19:40:44.683Z,57.54
2019-05-30T19:43:19.438Z,57.58
2019-05-30T19:45:53.386Z,57.78
2019-05-30T19:48:25.405Z,57.67
2019-05-30T19:51:07.956Z,58.14
2019-05-30T19:53:44.469Z,57.83
2019-05-30T19:56:14.658Z,57.67
2019-05-30T19:58:52.235Z,58.30
2019-05-30T20:01:24.585Z,57.84
2019-05-30T20:03:57.118Z,58.18
2019-05-30T20:06:28.153Z,58.30
2019-05-30T20:09:00.068Z,58.44
2019-05-30T20:11:33.222Z,58.30
2019-05-30T20:14:04.622Z,58.55
2019-05-30T20:16:35.751Z,59.05
2019-05-30T20:19:07.099Z,58.82
2019-05-30T20:21:39.875Z,58.32
2019-05-30T20:24:10.581Z,58.49
2019-05-30T20:26:41.318Z,59.07
2019-05-30T20:29:12.688Z,59.17
2019-05-30T20:31:43.655Z,59.52
2019-05-30T20:34:14.308Z,59.12
2019-05-30T20:36:45.068Z,59.01
2019-05-30T20:39:15.705Z,59.18
2019-05-30T20:41:47.243Z,59.55
2019-05-30T20:44:18.119Z,59.63
2019-05-30T20:46:49.809Z,59.34
2019-05-30T20:49:20.113Z,59.74
2019-05-30T20:51:50.701Z,59.83
2019-05-30T20:54:21.237Z,59.90
2019-05-30T20:56:51.988Z,59.89
2019-05-30T20:59:25.516Z,59.86
2019-05-30T21:01:56.282Z,60.11
2019-05-30T21:04:26.795Z,60.26
2019-05-30T21:06:58.629Z,61.10
2019-05-30T21:09:30.322Z,61.40
2019-05-30T21:12:02.649Z,61.24
2019-05-30T21:14:35.541Z,61.04
2019-05-30T21:17:06.318Z,61.11
2019-05-30T21:19:37.777Z,61.98
2019-05-30T21:22:09.374Z,61.76
2019-05-30T21:24:40.650Z,62.27
2019-05-30T21:27:11.454Z,62.00
2019-05-30T21:29:43.068Z,62.38
2019-05-30T21:32:14.454Z,62.72
2019-05-30T21:34:46.588Z,62.43
2019-05-30T21:37:17.647Z,62.15
2019-05-30T21:39:49.065Z,62.53
2019-05-30T21:42:19.819Z,62.14
2019-05-30T21:44:52.758Z,61.37
2019-05-30T21:47:23.256Z,62.09
2019-05-30T21:49:53.559Z,62.56
2019-05-30T21:52:24.201Z,62.67
2019-05-30T21:54:54.504Z,62.69
2019-05-30T21:57:25.610Z,63.14
2019-05-30T21:59:56.202Z,63.11
2019-05-30T22:02:27.096Z,63.00
2019-05-30T22:04:57.263Z,63.33
2019-05-30T22:07:27.700Z,63.69
2019-05-30T22:09:57.946Z,63.68
2019-05-30T22:12:29.818Z,63.49
2019-05-30T22:15:00.319Z,62.92
2019-05-30T22:17:30.363Z,63.06
2019-05-30T22:20:01.446Z,63.46
2019-05-30T22:22:33.575Z,63.39
2019-05-30T22:25:04.623Z,62.98
2019-05-30T22:27:35.194Z,63.63
2019-05-30T22:30:06.842Z,63.53
2019-05-30T22:32:38.522Z,63.79
2019-05-30T22:35:10.148Z,63.82
2019-05-30T22:37:40.567Z,64.30
2019-05-30T22:40:11.543Z,64.44
2019-05-30T22:42:41.803Z,64.49
2019-05-30T22:45:12.228Z,64.06
2019-05-30T22:47:44.126Z,64.67
2019-05-30T22:50:31.063Z,64.61
2019-05-30T22:53:01.118Z,65.06
2019-05-30T22:55:31.340Z,65.16
2019-05-30T22:58:01.917Z,65.33
2019-05-30T23:00:32.175Z,65.24
2019-05-30T23:03:02.730Z,65.36
2019-05-30T23:05:33.013Z,65.58
2019-05-30T23:08:03.484Z,65.51
2019-05-30T23:10:34.824Z,65.73
2019-05-30T23:13:04.984Z,65.63
2019-05-30T23:15:36.203Z,65.53
2019-05-30T23:18:07.137Z,65.18
2019-05-30T23:20:37.180Z,65.58
2019-05-30T23:23:07.805Z,65.36
2019-05-30T23:25:37.672Z,65.02
2019-05-30T23:28:08.954Z,64.97
2019-05-30T23:30:39.250Z,65.08
2019-05-30T23:33:09.981Z,65.17
2019-05-30T23:35:40.275Z,64.99
2019-05-30T23:38:12.145Z,65.06
2019-05-30T23:40:42.901Z,65.42
2019-05-30T23:47:18.737Z,64.97
2019-05-30T23:49:51.661Z,65.28
2019-05-30T23:52:22.358Z,65.49
2019-05-30T23:54:52.732Z,65.12
2019-05-30T23:57:22.903Z,65.12
2019-05-30T23:59:54.751Z,65.56
